createdAt,value
2022-08-18T00:01:16.647Z,99814.28
2022-08-18T00:03:56.254Z,99813.06
2022-08-18T00:06:30.061Z,99817.88
2022-08-18T00:08:59.977Z,99815.56
2022-08-18T00:11:41.622Z,99817.72
2022-08-18T00:14:13.828Z,99814.22
2022-08-18T00:16:53.770Z,99809.59
2022-08-18T00:19:43.459Z,99806.34
2022-08-18T00:22:15.830Z,99808.94
2022-08-18T00:24:48.121Z,99802.69
2022-08-18T00:27:21.982Z,99805.16
2022-08-18T00:29:53.210Z,99812.97
2022-08-18T00:32:25.580Z,99810.78
2022-08-18T00:34:54.371Z,99817.25
2022-08-18T00:37:25.199Z,99827.47
2022-08-18T00:39:54.369Z,99822.50
2022-08-18T00:42:28.863Z,99820.28
2022-08-18T00:45:02.744Z,99822.19
2022-08-18T00:47:41.601Z,99820.97
2022-08-18T00:50:15.676Z,99812.66
2022-08-18T00:52:51.205Z,99817.75
2022-08-18T00:55:20.381Z,99815.78
2022-08-18T00:57:57.393Z,99810.19
2022-08-18T01:00:25.834Z,99812.00
2022-08-18T01:02:58.332Z,99822.47
2022-08-18T01:05:34.070Z,99815.41
2022-08-18T01:08:04.689Z,99824.03
2022-08-18T01:10:35.458Z,99816.59
2022-08-18T01:13:03.699Z,99816.88
2022-08-18T01:15:33.969Z,99813.91
2022-08-18T01:18:21.714Z,99817.72
2022-08-18T01:21:16.235Z,99817.31
2022-08-18T01:23:47.166Z,99816.78
2022-08-18T01:26:15.517Z,99811.19
2022-08-18T01:28:46.653Z,99827.00
2022-08-18T01:31:32.983Z,99832.69
2022-08-18T01:34:01.313Z,99830.47
2022-08-18T01:36:30.151Z,99832.22
2022-08-18T01:38:59.776Z,99827.78
2022-08-18T01:41:30.831Z,99829.66
2022-08-18T01:44:00.546Z,99828.03
2022-08-18T01:46:30.318Z,99822.56
2022-08-18T01:49:01.489Z,99823.53
2022-08-18T01:51:39.383Z,99818.94
2022-08-18T01:54:13.493Z,99820.16
2022-08-18T01:56:43.393Z,99814.47
2022-08-18T01:59:14.791Z,99822.09
2022-08-18T02:01:48.450Z,99820.28
2022-08-18T02:04:36.553Z,99821.97
2022-08-18T02:07:09.288Z,99826.81
2022-08-18T02:09:41.276Z,99823.66
2022-08-18T02:12:10.266Z,99817.03
2022-08-18T02:14:39.100Z,99831.91
2022-08-18T02:17:09.472Z,99824.78
2022-08-18T02:19:40.932Z,99823.69
2022-08-18T02:22:11.921Z,99824.75
2022-08-18T02:24:44.065Z,99816.06
2022-08-18T02:27:13.503Z,99826.72
2022-08-18T02:29:42.061Z,99823.03
2022-08-18T02:32:10.504Z,99819.81
2022-08-18T02:34:38.812Z,99818.22
2022-08-18T02:37:06.985Z,99814.66
2022-08-18T02:39:38.036Z,99824.06
2022-08-18T02:42:09.213Z,99820.59
2022-08-18T02:44:37.483Z,99828.00
2022-08-18T02:47:06.544Z,99824.31
2022-08-18T02:49:36.902Z,99818.81
2022-08-18T02:52:06.737Z,99820.38
2022-08-18T02:54:35.276Z,99831.66
2022-08-18T02:57:10.850Z,99822.63
2022-08-18T02:59:40.636Z,99821.13
2022-08-18T03:02:10.679Z,99826.19
2022-08-18T03:04:38.882Z,99827.47
2022-08-18T03:07:09.501Z,99833.09
2022-08-18T03:09:38.181Z,99834.34
2022-08-18T03:12:08.577Z,99837.69
2022-08-18T03:14:39.997Z,99839.53
2022-08-18T03:17:10.292Z,99841.25
2022-08-18T03:19:38.874Z,99842.16
2022-08-18T03:22:27.606Z,99839.31
2022-08-18T03:24:57.868Z,99853.75
2022-08-18T03:27:26.683Z,99856.81
2022-08-18T03:29:56.686Z,99857.63
2022-08-18T03:32:27.231Z,99857.63
2022-08-18T03:34:55.485Z,99864.03
2022-08-18T03:37:23.601Z,99872.75
2022-08-18T03:39:52.929Z,99871.97
2022-08-18T03:42:21.218Z,99869.22
2022-08-18T03:44:49.332Z,99871.25
2022-08-18T03:47:19.554Z,99884.47
2022-08-18T03:49:48.508Z,99890.78
2022-08-18T03:52:16.943Z,99896.22
2022-08-18T03:54:45.214Z,99894.72
2022-08-18T03:57:14.435Z,99900.94
2022-08-18T03:59:43.847Z,99900.47
2022-08-18T04:02:13.164Z,99895.94
2022-08-18T04:04:43.162Z,99907.63
2022-08-18T04:07:17.381Z,99903.69
2022-08-18T04:09:46.359Z,99908.34
2022-08-18T04:12:17.466Z,99916.53
2022-08-18T04:14:50.384Z,99925.09
2022-08-18T04:17:25.114Z,99923.50
2022-08-18T04:19:56.561Z,99933.59
2022-08-18T04:22:26.458Z,99930.03
2022-08-18T04:24:55.658Z,99939.34
2022-08-18T04:27:26.390Z,99935.78
2022-08-18T04:29:56.831Z,99938.78
2022-08-18T04:32:29.921Z,99934.66
2022-08-18T04:35:02.531Z,99933.75
2022-08-18T04:37:33.156Z,99941.47
2022-08-18T04:40:07.878Z,99945.38
2022-08-18T04:42:36.053Z,99953.75
2022-08-18T04:45:13.076Z,99941.81
2022-08-18T04:47:41.926Z,99944.06
2022-08-18T04:50:12.397Z,99948.34
2022-08-18T04:52:57.994Z,99944.06
2022-08-18T04:55:26.382Z,99945.31
2022-08-18T04:57:54.505Z,99956.00
2022-08-18T05:00:23.018Z,99952.50
2022-08-18T05:02:54.606Z,99952.19
2022-08-18T05:05:24.612Z,99961.38
2022-08-18T05:07:52.876Z,99960.97
2022-08-18T05:10:21.155Z,99966.34
2022-08-18T05:12:49.917Z,99963.75
2022-08-18T05:15:19.055Z,99964.91
2022-08-18T05:17:50.385Z,99961.06
2022-08-18T05:20:19.427Z,99962.44
2022-08-18T05:22:50.158Z,99961.91
2022-08-18T05:25:18.671Z,99961.13
2022-08-18T05:27:46.775Z,99961.00
2022-08-18T05:30:15.696Z,99949.25
2022-08-18T05:32:49.718Z,99958.63
2022-08-18T05:35:23.457Z,99959.69
2022-08-18T05:38:28.081Z,99962.00
2022-08-18T05:41:14.067Z,99952.63
2022-08-18T05:43:52.076Z,99948.59
2022-08-18T05:46:23.468Z,99956.34
2022-08-18T05:48:53.569Z,99956.25
2022-08-18T05:51:27.722Z,99958.75
2022-08-18T05:54:15.464Z,99949.44
2022-08-18T05:56:47.612Z,99955.94
2022-08-18T05:59:22.244Z,99964.25
2022-08-18T06:01:56.985Z,99965.59
2022-08-18T06:04:31.537Z,99962.81
2022-08-18T06:07:05.677Z,99966.22
2022-08-18T06:09:40.533Z,99960.78
2022-08-18T06:12:21.082Z,99953.56
2022-08-18T06:14:49.283Z,99960.84
2022-08-18T06:17:38.225Z,99961.06
2022-08-18T06:20:16.642Z,99967.41
2022-08-18T06:22:56.628Z,99965.69
2022-08-18T06:25:35.264Z,99958.91
2022-08-18T06:28:08.699Z,99956.03
2022-08-18T06:30:52.178Z,99967.59
2022-08-18T06:33:39.610Z,99963.16
2022-08-18T06:36:19.736Z,99969.41
2022-08-18T06:39:44.486Z,99972.91
2022-08-18T06:42:14.009Z,99975.16
2022-08-18T06:44:46.750Z,99969.28
2022-08-18T06:47:22.489Z,99975.88
2022-08-18T06:49:59.138Z,99975.91
2022-08-18T06:52:30.936Z,99977.25
2022-08-18T06:55:01.535Z,99981.38
2022-08-18T06:57:34.746Z,99988.19
2022-08-18T07:00:11.306Z,99976.28
2022-08-18T07:02:50.817Z,99976.06
2022-08-18T07:05:25.451Z,99979.91
2022-08-18T07:08:18.940Z,99981.41
2022-08-18T07:10:48.559Z,99980.63
2022-08-18T07:13:25.661Z,99972.06
2022-08-18T07:15:55.778Z,99979.06
2022-08-18T07:18:27.487Z,99985.84
2022-08-18T07:20:58.964Z,99981.03
2022-08-18T07:23:32.310Z,99988.28
2022-08-18T07:26:05.765Z,99996.66
2022-08-18T07:28:40.311Z,99982.13
2022-08-18T07:31:30.718Z,99993.00
2022-08-18T07:34:02.718Z,99992.31
2022-08-18T07:36:35.613Z,100003.53
2022-08-18T07:39:09.047Z,99988.88
2022-08-18T07:41:44.054Z,99999.28
2022-08-18T07:44:18.953Z,99993.09
2022-08-18T07:46:57.381Z,99997.63
2022-08-18T07:49:28.040Z,100000.84
2022-08-18T07:52:14.617Z,99988.00
2022-08-18T07:55:04.865Z,99994.00
2022-08-18T07:57:43.716Z,99988.84
2022-08-18T08:00:54.898Z,99989.25
2022-08-18T08:03:27.021Z,99986.00
2022-08-18T08:06:08.607Z,99990.72
2022-08-18T08:08:43.586Z,99982.53
2022-08-18T08:11:27.506Z,99983.50
2022-08-18T08:14:07.268Z,99981.88
2022-08-18T08:16:45.715Z,99971.72
2022-08-18T08:19:59.068Z,99971.53
2022-08-18T08:22:29.540Z,99976.72
2022-08-18T08:25:17.499Z,99978.19
2022-08-18T08:28:07.455Z,99967.72
2022-08-18T08:30:42.273Z,99974.50
2022-08-18T08:33:21.350Z,99980.00
2022-08-18T08:35:55.069Z,99985.94
2022-08-18T08:38:42.409Z,99979.19
2022-08-18T08:41:20.009Z,99975.00
2022-08-18T08:43:55.275Z,99973.56
2022-08-18T08:46:30.073Z,99974.66
2022-08-18T08:49:07.107Z,99967.72
2022-08-18T08:51:40.913Z,99972.59
2022-08-18T08:54:16.284Z,99978.91
2022-08-18T08:56:48.444Z,99967.03
2022-08-18T08:59:19.736Z,99972.47
2022-08-18T09:02:00.269Z,99965.28
2022-08-18T09:04:54.805Z,99976.47
2022-08-18T09:07:48.032Z,99983.28
2022-08-18T09:10:42.447Z,99976.44
2022-08-18T09:13:33.627Z,99966.69
2022-08-18T09:16:23.356Z,99977.63
2022-08-18T09:19:12.939Z,99973.06
2022-08-18T09:21:49.806Z,99975.09
2022-08-18T09:24:25.860Z,99969.56
2022-08-18T09:27:14.817Z,99968.00
2022-08-18T09:29:53.444Z,99962.47
2022-08-18T09:32:54.609Z,99960.41
2022-08-18T09:35:55.764Z,99971.53
2022-08-18T09:38:48.617Z,99975.22
2022-08-18T09:41:35.848Z,99972.28
2022-08-18T09:44:21.763Z,99959.84
2022-08-18T09:46:58.814Z,99969.38
2022-08-18T09:49:47.911Z,99973.53
2022-08-18T09:52:56.114Z,99965.16
2022-08-18T09:59:10.895Z,99963.94
2022-08-18T10:01:42.983Z,99962.06
2022-08-18T10:04:34.102Z,99965.47
2022-08-18T10:11:01.504Z,99978.44
2022-08-18T10:13:25.443Z,99971.41
2022-08-18T10:16:11.490Z,99965.19
2022-08-18T10:19:23.203Z,99965.59
2022-08-18T10:22:06.558Z,99972.63
2022-08-18T10:24:38.490Z,99971.28
2022-08-18T10:27:10.021Z,99972.25
2022-08-18T10:29:57.036Z,99970.34
2022-08-18T10:32:54.044Z,99967.38
2022-08-18T10:36:07.328Z,99976.53
2022-08-18T10:38:45.959Z,99970.47
2022-08-18T10:41:31.550Z,99973.16
2022-08-18T10:44:15.344Z,99975.22
2022-08-18T10:46:54.194Z,99978.06
2022-08-18T10:49:32.119Z,99979.16
2022-08-18T10:52:45.506Z,99973.44
2022-08-18T10:55:50.126Z,99983.16
2022-08-18T10:58:49.693Z,99980.41
2022-08-18T11:01:32.762Z,99983.56
2022-08-18T11:04:33.423Z,99969.75
2022-08-18T11:07:12.479Z,99987.75
2022-08-18T11:09:50.673Z,99989.03
2022-08-18T11:13:07.681Z,99981.53
2022-08-18T11:15:50.607Z,99977.28
2022-08-18T11:21:33.370Z,99967.06
2022-08-18T11:24:12.017Z,99972.91
2022-08-18T11:26:43.875Z,99967.00
2022-08-18T11:29:33.344Z,99958.84
2022-08-18T11:32:09.299Z,99968.88
2022-08-18T11:34:52.168Z,99962.75
2022-08-18T11:37:28.212Z,99969.13
2022-08-18T11:43:30.010Z,99954.00
2022-08-18T11:46:16.471Z,99958.75
2022-08-18T11:48:51.715Z,99956.34
2022-08-18T11:51:25.473Z,99955.22
2022-08-18T11:54:02.347Z,99960.75
2022-08-18T11:56:37.714Z,99962.31
2022-08-18T11:59:07.802Z,99953.22
2022-08-18T12:01:48.776Z,99960.00
2022-08-18T12:04:25.666Z,99958.66
2022-08-18T12:07:00.770Z,99952.13
2022-08-18T12:10:16.561Z,99961.84
2022-08-18T12:12:31.124Z,99963.28
2022-08-18T12:15:24.952Z,99959.53
2022-08-18T12:17:54.092Z,99953.31
2022-08-18T12:20:23.422Z,99949.31
2022-08-18T12:22:54.490Z,99949.16
2022-08-18T12:25:25.703Z,99961.16
2022-08-18T12:27:54.584Z,99966.47
2022-08-18T12:30:23.410Z,99954.00
2022-08-18T12:32:55.732Z,99952.25
2022-08-18T12:35:25.134Z,99947.88
2022-08-18T12:37:59.639Z,99942.78
2022-08-18T12:40:33.164Z,99939.50
2022-08-18T12:45:49.787Z,99946.50
2022-08-18T12:48:18.298Z,99943.63
2022-08-18T12:50:55.518Z,99936.91
2022-08-18T12:53:30.358Z,99940.41
2022-08-18T12:56:13.959Z,99938.94
2022-08-18T12:58:42.199Z,99934.84
2022-08-18T13:01:11.164Z,99934.28
2022-08-18T13:03:42.631Z,99928.38
2022-08-18T13:06:11.649Z,99923.31
2022-08-18T13:08:48.105Z,99922.78
2022-08-18T13:11:23.412Z,99918.03
2022-08-18T13:13:56.972Z,99913.56
2022-08-18T13:16:30.830Z,99907.25
2022-08-18T13:19:10.666Z,99902.81
2022-08-18T13:21:41.382Z,99905.47
2022-08-18T13:24:12.997Z,99906.91
2022-08-18T13:26:46.116Z,99904.00
2022-08-18T13:29:17.438Z,99914.72
2022-08-18T13:31:56.065Z,99908.44
2022-08-18T13:34:30.121Z,99916.28
2022-08-18T13:36:58.798Z,99917.03
2022-08-18T13:39:33.617Z,99935.69
2022-08-18T13:42:26.456Z,99941.97
2022-08-18T13:44:55.184Z,99932.16
2022-08-18T13:47:28.016Z,99921.78
2022-08-18T13:49:58.962Z,99924.88
2022-08-18T13:52:34.376Z,99933.72
2022-08-18T13:55:08.516Z,99936.03
2022-08-18T13:57:50.549Z,99942.97
2022-08-18T14:00:30.635Z,99940.44
2022-08-18T14:03:03.364Z,99953.00
2022-08-18T14:05:36.481Z,99943.06
2022-08-18T14:08:19.823Z,99938.88
2022-08-18T14:10:51.196Z,99941.31
2022-08-18T14:13:24.870Z,99951.25
2022-08-18T14:15:54.691Z,99955.09
2022-08-18T14:18:28.863Z,99952.72
2022-08-18T14:21:22.925Z,99953.66
2022-08-18T14:24:10.203Z,99957.94
2022-08-18T14:26:51.409Z,99957.63
2022-08-18T14:29:47.367Z,99949.94
2022-08-18T14:32:17.843Z,99955.03
2022-08-18T14:34:50.804Z,99955.53
2022-08-18T14:37:19.663Z,99955.00
2022-08-18T14:39:50.349Z,99956.69
2022-08-18T14:42:21.192Z,99955.03
2022-08-18T14:45:26.545Z,99955.00
2022-08-18T14:47:59.594Z,99952.25
2022-08-18T14:50:28.082Z,99952.16
2022-08-18T14:52:56.476Z,99949.94
2022-08-18T14:55:27.799Z,99947.50
2022-08-18T14:57:59.477Z,99947.94
2022-08-18T15:00:30.367Z,99950.06
2022-08-18T15:03:00.061Z,99951.44
2022-08-18T15:05:33.939Z,99953.63
2022-08-18T15:08:04.840Z,99950.09
2022-08-18T15:10:34.207Z,99950.84
2022-08-18T15:13:03.911Z,99947.41
2022-08-18T15:15:51.029Z,99944.63
2022-08-18T15:18:22.357Z,99936.31
2022-08-18T15:21:19.563Z,99935.66
2022-08-18T15:24:19.523Z,99931.19
2022-08-18T15:26:51.787Z,99929.03
2022-08-18T15:29:29.009Z,99927.56
2022-08-18T15:32:06.191Z,99935.88
2022-08-18T15:34:46.100Z,99934.84
2022-08-18T15:37:19.563Z,99929.94
2022-08-18T15:39:51.811Z,99932.50
2022-08-18T15:42:24.671Z,99929.72
2022-08-18T15:44:53.810Z,99929.22
2022-08-18T15:47:25.273Z,99934.72
2022-08-18T15:49:54.862Z,99929.88
2022-08-18T15:52:25.800Z,99925.59
2022-08-18T15:54:56.991Z,99920.31
2022-08-18T15:57:39.017Z,99919.41
2022-08-18T16:00:12.044Z,99920.97
2022-08-18T16:02:48.395Z,99917.84
2022-08-18T16:05:17.936Z,99916.47
2022-08-18T16:07:47.795Z,99925.91
2022-08-18T16:10:18.080Z,99929.00
2022-08-18T16:12:46.675Z,99924.34
2022-08-18T16:15:21.190Z,99926.25
2022-08-18T16:17:52.759Z,99925.81
2022-08-18T16:20:23.979Z,99925.38
2022-08-18T16:22:52.953Z,99937.66
2022-08-18T16:25:22.714Z,99934.97
2022-08-18T16:27:51.382Z,99931.88
2022-08-18T16:30:23.382Z,99936.25
2022-08-18T16:32:53.555Z,99937.66
2022-08-18T16:35:22.900Z,99940.28
2022-08-18T16:37:51.872Z,99946.53
2022-08-18T16:40:20.862Z,99939.91
2022-08-18T16:42:49.389Z,99951.28
2022-08-18T16:45:22.979Z,99936.22
2022-08-18T16:47:52.557Z,99938.50
2022-08-18T16:50:20.915Z,99935.69
2022-08-18T16:52:49.145Z,99933.44
2022-08-18T16:55:17.313Z,99934.50
2022-08-18T16:58:03.307Z,99937.56
2022-08-18T17:00:54.679Z,99947.00
2022-08-18T17:03:58.445Z,99941.88
2022-08-18T17:06:28.410Z,99937.66
2022-08-18T17:08:57.468Z,99935.25
2022-08-18T17:11:28.104Z,99941.88
2022-08-18T17:13:58.441Z,99948.13
2022-08-18T17:16:29.140Z,99954.16
2022-08-18T17:19:00.399Z,99954.88
2022-08-18T17:24:09.195Z,99957.91
2022-08-18T17:26:49.588Z,99973.88
2022-08-18T17:29:21.631Z,99967.97
2022-08-18T17:31:55.069Z,99967.25
2022-08-18T17:34:32.240Z,99974.72
2022-08-18T17:37:02.691Z,99977.47
2022-08-18T17:39:37.818Z,99967.44
2022-08-18T17:42:23.915Z,99970.91
2022-08-18T17:44:54.168Z,99979.50
2022-08-18T17:47:29.150Z,99988.50
2022-08-18T17:50:26.979Z,99991.13
2022-08-18T17:53:05.513Z,99987.38
2022-08-18T17:55:40.336Z,99989.38
2022-08-18T17:58:18.673Z,99991.50
2022-08-18T18:00:46.875Z,99992.66
2022-08-18T18:03:15.142Z,99983.69
2022-08-18T18:05:48.922Z,99987.16
2022-08-18T18:08:17.654Z,99975.56
2022-08-18T18:11:04.284Z,99997.69
2022-08-18T18:13:34.337Z,99992.09
2022-08-18T18:16:22.244Z,100000.66
2022-08-18T18:18:59.866Z,100002.00
2022-08-18T18:21:56.564Z,100004.69
2022-08-18T18:24:32.405Z,99992.19
2022-08-18T18:27:01.157Z,99998.03
2022-08-18T18:29:35.670Z,100004.13
2022-08-18T18:32:08.670Z,100002.53
2022-08-18T18:34:40.402Z,99998.91
2022-08-18T18:37:28.817Z,100003.28
2022-08-18T18:39:58.984Z,99996.22
2022-08-18T18:42:29.524Z,100002.56
2022-08-18T18:44:59.936Z,100006.38
2022-08-18T18:47:49.918Z,100001.88
2022-08-18T18:50:26.022Z,100007.09
2022-08-18T18:53:12.207Z,100018.94
2022-08-18T18:55:48.887Z,100007.13
2022-08-18T18:58:27.326Z,100007.16
2022-08-18T19:01:01.844Z,100010.97
2022-08-18T19:03:37.619Z,100006.09
2022-08-18T19:06:29.515Z,100005.81
2022-08-18T19:09:08.887Z,100012.47
2022-08-18T19:11:57.712Z,100015.25
2022-08-18T19:14:31.893Z,100007.06
2022-08-18T19:17:05.820Z,100013.19
2022-08-18T19:19:39.304Z,100012.47
2022-08-18T19:22:15.929Z,100010.50
2022-08-18T19:24:55.040Z,100005.16
2022-08-18T19:27:29.306Z,100007.56
2022-08-18T19:30:02.906Z,100015.84
2022-08-18T19:32:44.408Z,100006.47
2022-08-18T19:35:19.779Z,100009.31
2022-08-18T19:38:04.579Z,100006.66
2022-08-18T19:40:43.029Z,99998.56
2022-08-18T19:43:16.834Z,100006.00
2022-08-18T19:45:50.518Z,100000.25
2022-08-18T19:48:27.300Z,100004.97
2022-08-18T19:50:59.246Z,99990.22
2022-08-18T19:53:44.440Z,99992.97
2022-08-18T19:56:32.872Z,99994.94
2022-08-18T19:59:35.026Z,99991.41
2022-08-18T20:02:22.106Z,99996.09
2022-08-18T20:05:03.625Z,99999.94
2022-08-18T20:07:55.331Z,100002.28
2022-08-18T20:10:36.293Z,100001.47
2022-08-18T20:13:21.041Z,99991.34
2022-08-18T20:16:12.281Z,99991.28
2022-08-18T20:18:42.812Z,99999.03
2022-08-18T20:21:39.791Z,99995.88
2022-08-18T20:24:30.559Z,100007.59
2022-08-18T20:27:21.414Z,99996.22
2022-08-18T20:30:03.500Z,99996.63
2022-08-18T20:32:35.705Z,99998.59
2022-08-18T20:35:20.377Z,100001.31
2022-08-18T20:37:48.481Z,100011.50
2022-08-18T20:40:38.342Z,100012.28
2022-08-18T20:43:07.642Z,100009.53
2022-08-18T20:45:42.577Z,100004.44
2022-08-18T20:48:29.226Z,100005.97
2022-08-18T20:51:12.008Z,100001.66
2022-08-18T20:54:13.153Z,99997.34
2022-08-18T20:56:48.256Z,99997.75
2022-08-18T20:59:20.582Z,100001.19
2022-08-18T21:02:05.071Z,100009.06
2022-08-18T21:04:42.969Z,100000.03
2022-08-18T21:07:18.479Z,99995.03
2022-08-18T21:10:13.071Z,99989.53
2022-08-18T21:12:52.931Z,99995.03
2022-08-18T21:15:24.311Z,99995.84
2022-08-18T21:18:01.109Z,99983.72
2022-08-18T21:20:30.450Z,99978.25
2022-08-18T21:23:10.058Z,99969.31
2022-08-18T21:25:44.285Z,99969.25
2022-08-18T21:28:13.200Z,99969.72
2022-08-18T21:30:55.439Z,99967.81
2022-08-18T21:33:25.205Z,99972.16
2022-08-18T21:35:53.521Z,99968.63
2022-08-18T21:38:28.227Z,99970.13
2022-08-18T21:41:01.914Z,99971.00
2022-08-18T21:43:43.617Z,99958.22
2022-08-18T21:46:24.425Z,99958.66
2022-08-18T21:48:58.812Z,99955.19
2022-08-18T21:51:31.610Z,99954.84
2022-08-18T21:54:00.858Z,99948.97
2022-08-18T21:56:31.318Z,99952.09
2022-08-18T21:59:09.697Z,99949.41
2022-08-18T22:01:40.154Z,99944.06
2022-08-18T22:04:24.418Z,99942.53
2022-08-18T22:06:55.566Z,99940.97
2022-08-18T22:09:43.695Z,99944.06
2022-08-18T22:12:46.183Z,99943.75
2022-08-18T22:15:18.612Z,99949.00
2022-08-18T22:17:57.404Z,99933.81
2022-08-18T22:20:47.991Z,99929.50
2022-08-18T22:23:55.947Z,99926.41
2022-08-18T22:26:27.538Z,99929.53
2022-08-18T22:29:00.973Z,99931.16
2022-08-18T22:31:32.668Z,99931.16
2022-08-18T22:34:04.746Z,99931.50
2022-08-18T22:36:37.541Z,99929.94
2022-08-18T22:39:09.187Z,99936.66
2022-08-18T22:41:38.166Z,99932.31
2022-08-18T22:44:08.066Z,99930.41
2022-08-18T22:46:37.038Z,99932.75
2022-08-18T22:49:05.470Z,99930.44
2022-08-18T22:51:36.810Z,99925.69
2022-08-18T22:54:06.351Z,99924.81
2022-08-18T22:56:35.795Z,99927.56
2022-08-18T22:59:15.571Z,99931.50
2022-08-18T23:01:46.586Z,99925.69
2022-08-18T23:04:17.140Z,99921.84
2022-08-18T23:06:52.529Z,99927.31
2022-08-18T23:09:22.973Z,99937.47
2022-08-18T23:11:52.247Z,99925.00
2022-08-18T23:14:20.566Z,99930.84
2022-08-18T23:16:49.767Z,99931.25
2022-08-18T23:19:20.400Z,99929.31
2022-08-18T23:21:51.776Z,99928.09
2022-08-18T23:24:21.354Z,99928.53
2022-08-18T23:26:50.535Z,99930.47
2022-08-18T23:29:20.000Z,99928.94
2022-08-18T23:31:49.613Z,99927.78
2022-08-18T23:34:19.494Z,99932.06
2022-08-18T23:36:55.545Z,99927.38
2022-08-18T23:39:24.016Z,99926.91
2022-08-18T23:41:53.041Z,99926.38
2022-08-18T23:44:21.391Z,99925.44
2022-08-18T23:46:52.440Z,99926.19
2022-08-18T23:49:20.889Z,99923.81
2022-08-18T23:51:55.084Z,99931.63
2022-08-18T23:54:25.994Z,99932.00
2022-08-18T23:56:54.090Z,99928.09
2022-08-18T23:59:24.977Z,99933.56
